sensor_id;sensor_type;location;lat;lon;timestamp;P1;durP1;ratioP1;P2;durP2;ratioP2
38755;SDS011;77170;43.486;-1.508;2024-03-29T00:00:34;1.00;;;0.30;;
38755;SDS011;77170;43.486;-1.508;2024-03-29T00:03:03;1.17;;;0.38;;
38755;SDS011;77170;43.486;-1.508;2024-03-29T00:05:30;1.85;;;0.38;;
38755;SDS011;77170;43.486;-1.508;2024-03-29T00:07:59;3.63;;;0.50;;
38755;SDS011;77170;43.486;-1.508;2024-03-29T00:10:25;0.93;;;0.40;;
38755;SDS011;77170;43.486;-1.508;2024-03-29T00:12:51;0.38;;;0.38;;
38755;SDS011;77170;43.486;-1.508;2024-03-29T00:15:20;1.35;;;0.47;;
38755;SDS011;77170;43.486;-1.508;2024-03-29T00:17:50;0.82;;;0.47;;
38755;SDS011;77170;43.486;-1.508;2024-03-29T00:20:21;2.08;;;0.50;;
38755;SDS011;77170;43.486;-1.508;2024-03-29T00:22:49;0.65;;;0.30;;
38755;SDS011;77170;43.486;-1.508;2024-03-29T00:25:15;0.43;;;0.30;;
38755;SDS011;77170;43.486;-1.508;2024-03-29T00:27:41;1.08;;;0.30;;
38755;SDS011;77170;43.486;-1.508;2024-03-29T00:30:09;1.98;;;0.40;;
38755;SDS011;77170;43.486;-1.508;2024-03-29T00:32:38;0.32;;;0.30;;
38755;SDS011;77170;43.486;-1.508;2024-03-29T00:35:04;0.40;;;0.40;;
38755;SDS011;77170;43.486;-1.508;2024-03-29T00:37:31;0.40;;;0.40;;
38755;SDS011;77170;43.486;-1.508;2024-03-29T00:39:57;0.77;;;0.35;;
38755;SDS011;77170;43.486;-1.508;2024-03-29T00:42:24;0.63;;;0.35;;
38755;SDS011;77170;43.486;-1.508;2024-03-29T00:44:50;1.27;;;0.30;;
38755;SDS011;77170;43.486;-1.508;2024-03-29T00:47:19;1.50;;;0.40;;
38755;SDS011;77170;43.486;-1.508;2024-03-29T00:49:45;1.42;;;0.40;;
38755;SDS011;77170;43.486;-1.508;2024-03-29T00:52:14;0.65;;;0.30;;
38755;SDS011;77170;43.486;-1.508;2024-03-29T00:54:41;0.43;;;0.35;;
38755;SDS011;77170;43.486;-1.508;2024-03-29T00:57:10;1.63;;;0.40;;
38755;SDS011;77170;43.486;-1.508;2024-03-29T00:59:38;0.80;;;0.40;;
38755;SDS011;77170;43.486;-1.508;2024-03-29T01:02:07;0.93;;;0.47;;
38755;SDS011;77170;43.486;-1.508;2024-03-29T01:04:36;0.80;;;0.30;;
38755;SDS011;77170;43.486;-1.508;2024-03-29T01:07:04;1.45;;;0.40;;
38755;SDS011;77170;43.486;-1.508;2024-03-29T01:09:30;0.30;;;0.30;;
38755;SDS011;77170;43.486;-1.508;2024-03-29T01:11:59;0.45;;;0.30;;
38755;SDS011;77170;43.486;-1.508;2024-03-29T01:14:25;0.68;;;0.40;;
38755;SDS011;77170;43.486;-1.508;2024-03-29T01:16:51;0.75;;;0.30;;
38755;SDS011;77170;43.486;-1.508;2024-03-29T01:19:18;0.77;;;0.25;;
38755;SDS011;77170;43.486;-1.508;2024-03-29T01:21:45;0.80;;;0.30;;
38755;SDS011;77170;43.486;-1.508;2024-03-29T01:24:14;0.30;;;0.20;;
38755;SDS011;77170;43.486;-1.508;2024-03-29T01:26:43;0.60;;;0.40;;
38755;SDS011;77170;43.486;-1.508;2024-03-29T01:29:12;0.68;;;0.35;;
38755;SDS011;77170;43.486;-1.508;2024-03-29T01:31:42;0.93;;;0.38;;
38755;SDS011;77170;43.486;-1.508;2024-03-29T01:34:08;0.30;;;0.30;;
38755;SDS011;77170;43.486;-1.508;2024-03-29T01:36:37;0.73;;;0.30;;
38755;SDS011;77170;43.486;-1.508;2024-03-29T01:39:03;0.63;;;0.20;;
38755;SDS011;77170;43.486;-1.508;2024-03-29T01:41:32;1.40;;;0.47;;
38755;SDS011;77170;43.486;-1.508;2024-03-29T01:43:59;9.98;;;1.73;;
38755;SDS011;77170;43.486;-1.508;2024-03-29T01:46:25;17.40;;;2.75;;
38755;SDS011;77170;43.486;-1.508;2024-03-29T01:48:53;16.30;;;3.03;;
38755;SDS011;77170;43.486;-1.508;2024-03-29T01:51:22;18.95;;;3.95;;
38755;SDS011;77170;43.486;-1.508;2024-03-29T01:53:50;24.08;;;5.03;;
38755;SDS011;77170;43.486;-1.508;2024-03-29T01:56:18;31.73;;;5.82;;
38755;SDS011;77170;43.486;-1.508;2024-03-29T01:58:47;27.52;;;5.97;;
38755;SDS011;77170;43.486;-1.508;2024-03-29T02:01:16;31.27;;;5.70;;
38755;SDS011;77170;43.486;-1.508;2024-03-29T02:03:43;27.30;;;5.30;;
38755;SDS011;77170;43.486;-1.508;2024-03-29T02:06:10;23.02;;;5.10;;
38755;SDS011;77170;43.486;-1.508;2024-03-29T02:08:39;35.05;;;5.18;;
38755;SDS011;77170;43.486;-1.508;2024-03-29T02:11:08;32.33;;;5.73;;
38755;SDS011;77170;43.486;-1.508;2024-03-29T02:13:35;26.08;;;5.53;;
38755;SDS011;77170;43.486;-1.508;2024-03-29T02:16:02;19.90;;;5.40;;
38755;SDS011;77170;43.486;-1.508;2024-03-29T02:18:28;33.53;;;5.38;;
38755;SDS011;77170;43.486;-1.508;2024-03-29T02:20:54;33.25;;;6.03;;
38755;SDS011;77170;43.486;-1.508;2024-03-29T02:23:25;30.25;;;4.55;;
38755;SDS011;77170;43.486;-1.508;2024-03-29T02:25:53;14.82;;;3.88;;
38755;SDS011;77170;43.486;-1.508;2024-03-29T02:30:52;21.95;;;4.65;;
38755;SDS011;77170;43.486;-1.508;2024-03-29T02:33:20;29.27;;;5.95;;
38755;SDS011;77170;43.486;-1.508;2024-03-29T02:35:50;31.08;;;7.28;;
38755;SDS011;77170;43.486;-1.508;2024-03-29T02:38:16;37.72;;;8.10;;
38755;SDS011;77170;43.486;-1.508;2024-03-29T02:40:45;32.67;;;7.75;;
38755;SDS011;77170;43.486;-1.508;2024-03-29T02:43:14;36.42;;;7.50;;
38755;SDS011;77170;43.486;-1.508;2024-03-29T02:45:40;28.55;;;6.50;;
38755;SDS011;77170;43.486;-1.508;2024-03-29T02:48:09;26.27;;;6.25;;
38755;SDS011;77170;43.486;-1.508;2024-03-29T02:50:35;20.05;;;4.00;;
38755;SDS011;77170;43.486;-1.508;2024-03-29T02:53:04;13.65;;;2.85;;
38755;SDS011;77170;43.486;-1.508;2024-03-29T02:55:30;11.73;;;2.50;;
38755;SDS011;77170;43.486;-1.508;2024-03-29T02:57:59;14.20;;;2.10;;
38755;SDS011;77170;43.486;-1.508;2024-03-29T03:00:25;10.20;;;2.58;;
38755;SDS011;77170;43.486;-1.508;2024-03-29T03:02:55;14.73;;;2.47;;
38755;SDS011;77170;43.486;-1.508;2024-03-29T03:05:23;10.80;;;2.08;;
38755;SDS011;77170;43.486;-1.508;2024-03-29T03:07:50;11.23;;;2.10;;
38755;SDS011;77170;43.486;-1.508;2024-03-29T03:10:34;6.15;;;1.48;;
38755;SDS011;77170;43.486;-1.508;2024-03-29T03:13:18;8.27;;;1.42;;
38755;SDS011;77170;43.486;-1.508;2024-03-29T03:15:44;5.00;;;1.38;;
38755;SDS011;77170;43.486;-1.508;2024-03-29T03:18:10;6.68;;;1.35;;
38755;SDS011;77170;43.486;-1.508;2024-03-29T03:20:37;5.80;;;0.98;;
38755;SDS011;77170;43.486;-1.508;2024-03-29T03:23:03;3.55;;;0.95;;
38755;SDS011;77170;43.486;-1.508;2024-03-29T03:25:29;2.35;;;0.70;;
38755;SDS011;77170;43.486;-1.508;2024-03-29T03:27:55;0.70;;;0.30;;
38755;SDS011;77170;43.486;-1.508;2024-03-29T03:30:21;1.35;;;0.40;;
38755;SDS011;77170;43.486;-1.508;2024-03-29T03:32:47;1.05;;;0.30;;
38755;SDS011;77170;43.486;-1.508;2024-03-29T03:35:14;2.13;;;0.40;;
38755;SDS011;77170;43.486;-1.508;2024-03-29T03:37:40;0.85;;;0.40;;
38755;SDS011;77170;43.486;-1.508;2024-03-29T03:40:06;0.63;;;0.25;;
38755;SDS011;77170;43.486;-1.508;2024-03-29T03:42:33;1.38;;;0.30;;
38755;SDS011;77170;43.486;-1.508;2024-03-29T03:44:59;2.20;;;0.40;;
38755;SDS011;77170;43.486;-1.508;2024-03-29T03:47:25;0.20;;;0.20;;
38755;SDS011;77170;43.486;-1.508;2024-03-29T03:49:51;2.13;;;0.30;;
38755;SDS011;77170;43.486;-1.508;2024-03-29T03:52:17;0.55;;;0.30;;
38755;SDS011;77170;43.486;-1.508;2024-03-29T03:54:43;0.90;;;0.30;;
38755;SDS011;77170;43.486;-1.508;2024-03-29T03:57:09;1.15;;;0.50;;
38755;SDS011;77170;43.486;-1.508;2024-03-29T03:59:35;0.73;;;0.43;;
38755;SDS011;77170;43.486;-1.508;2024-03-29T04:02:01;0.40;;;0.40;;
38755;SDS011;77170;43.486;-1.508;2024-03-29T04:04:28;1.15;;;0.40;;
38755;SDS011;77170;43.486;-1.508;2024-03-29T04:06:54;0.63;;;0.22;;
38755;SDS011;77170;43.486;-1.508;2024-03-29T04:09:20;1.38;;;0.50;;
38755;SDS011;77170;43.486;-1.508;2024-03-29T04:11:46;0.80;;;0.43;;
38755;SDS011;77170;43.486;-1.508;2024-03-29T04:14:12;1.00;;;0.38;;
38755;SDS011;77170;43.486;-1.508;2024-03-29T04:16:39;1.20;;;0.47;;
38755;SDS011;77170;43.486;-1.508;2024-03-29T04:19:05;0.93;;;0.35;;
38755;SDS011;77170;43.486;-1.508;2024-03-29T04:21:31;0.40;;;0.40;;
38755;SDS011;77170;43.486;-1.508;2024-03-29T04:23:57;2.47;;;0.30;;
38755;SDS011;77170;43.486;-1.508;2024-03-29T04:26:23;0.30;;;0.30;;
38755;SDS011;77170;43.486;-1.508;2024-03-29T04:28:49;0.80;;;0.45;;
38755;SDS011;77170;43.486;-1.508;2024-03-29T04:31:15;0.20;;;0.20;;
38755;SDS011;77170;43.486;-1.508;2024-03-29T04:33:41;0.30;;;0.30;;
38755;SDS011;77170;43.486;-1.508;2024-03-29T04:36:08;0.70;;;0.32;;
38755;SDS011;77170;43.486;-1.508;2024-03-29T04:38:34;0.30;;;0.30;;
38755;SDS011;77170;43.486;-1.508;2024-03-29T04:41:00;0.52;;;0.22;;
38755;SDS011;77170;43.486;-1.508;2024-03-29T04:43:27;2.15;;;0.40;;
38755;SDS011;77170;43.486;-1.508;2024-03-29T04:46:08;0.38;;;0.25;;
38755;SDS011;77170;43.486;-1.508;2024-03-29T04:48:36;0.20;;;0.20;;
38755;SDS011;77170;43.486;-1.508;2024-03-29T04:51:02;3.60;;;0.60;;
38755;SDS011;77170;43.486;-1.508;2024-03-29T04:53:29;1.40;;;0.32;;
38755;SDS011;77170;43.486;-1.508;2024-03-29T04:55:56;5.53;;;1.20;;
38755;SDS011;77170;43.486;-1.508;2024-03-29T04:58:23;9.23;;;2.20;;
38755;SDS011;77170;43.486;-1.508;2024-03-29T05:00:50;27.08;;;4.28;;
38755;SDS011;77170;43.486;-1.508;2024-03-29T05:03:17;25.10;;;4.50;;
38755;SDS011;77170;43.486;-1.508;2024-03-29T05:05:44;23.67;;;5.68;;
38755;SDS011;77170;43.486;-1.508;2024-03-29T05:08:11;31.73;;;6.55;;
38755;SDS011;77170;43.486;-1.508;2024-03-29T05:10:39;39.20;;;7.80;;
38755;SDS011;77170;43.486;-1.508;2024-03-29T05:13:05;36.10;;;7.95;;
38755;SDS011;77170;43.486;-1.508;2024-03-29T05:15:31;52.38;;;9.77;;
38755;SDS011;77170;43.486;-1.508;2024-03-29T05:17:58;36.78;;;8.35;;
38755;SDS011;77170;43.486;-1.508;2024-03-29T05:20:24;41.30;;;8.15;;
38755;SDS011;77170;43.486;-1.508;2024-03-29T05:22:50;45.17;;;8.63;;
38755;SDS011;77170;43.486;-1.508;2024-03-29T05:25:16;40.22;;;8.07;;
38755;SDS011;77170;43.486;-1.508;2024-03-29T05:27:42;36.63;;;7.15;;
38755;SDS011;77170;43.486;-1.508;2024-03-29T05:30:08;34.10;;;7.53;;
38755;SDS011;77170;43.486;-1.508;2024-03-29T05:32:35;46.53;;;8.40;;
38755;SDS011;77170;43.486;-1.508;2024-03-29T05:35:01;29.77;;;6.95;;
38755;SDS011;77170;43.486;-1.508;2024-03-29T05:37:28;22.83;;;5.07;;
38755;SDS011;77170;43.486;-1.508;2024-03-29T05:39:54;18.42;;;4.57;;
38755;SDS011;77170;43.486;-1.508;2024-03-29T05:42:30;10.88;;;2.60;;
38755;SDS011;77170;43.486;-1.508;2024-03-29T05:44:58;12.70;;;2.35;;
38755;SDS011;77170;43.486;-1.508;2024-03-29T05:47:24;5.00;;;1.33;;
38755;SDS011;77170;43.486;-1.508;2024-03-29T05:49:50;3.78;;;0.77;;
38755;SDS011;77170;43.486;-1.508;2024-03-29T05:52:17;1.13;;;0.35;;
38755;SDS011;77170;43.486;-1.508;2024-03-29T05:54:43;0.45;;;0.30;;
38755;SDS011;77170;43.486;-1.508;2024-03-29T05:57:11;2.25;;;0.40;;
38755;SDS011;77170;43.486;-1.508;2024-03-29T05:59:37;0.82;;;0.40;;
38755;SDS011;77170;43.486;-1.508;2024-03-29T06:02:03;0.50;;;0.50;;
38755;SDS011;77170;43.486;-1.508;2024-03-29T06:04:30;1.08;;;0.40;;
38755;SDS011;77170;43.486;-1.508;2024-03-29T06:06:59;0.30;;;0.30;;
38755;SDS011;77170;43.486;-1.508;2024-03-29T06:09:26;0.35;;;0.30;;
38755;SDS011;77170;43.486;-1.508;2024-03-29T06:11:53;0.30;;;0.30;;
38755;SDS011;77170;43.486;-1.508;2024-03-29T06:14:21;0.30;;;0.30;;
38755;SDS011;77170;43.486;-1.508;2024-03-29T06:17:08;0.30;;;0.30;;
38755;SDS011;77170;43.486;-1.508;2024-03-29T06:19:54;0.30;;;0.30;;
38755;SDS011;77170;43.486;-1.508;2024-03-29T06:22:22;0.35;;;0.30;;
38755;SDS011;77170;43.486;-1.508;2024-03-29T06:24:53;0.40;;;0.20;;
38755;SDS011;77170;43.486;-1.508;2024-03-29T06:27:19;0.20;;;0.20;;
38755;SDS011;77170;43.486;-1.508;2024-03-29T06:29:48;0.30;;;0.30;;
38755;SDS011;77170;43.486;-1.508;2024-03-29T06:32:17;0.30;;;0.30;;
38755;SDS011;77170;43.486;-1.508;2024-03-29T06:34:46;0.20;;;0.20;;
38755;SDS011;77170;43.486;-1.508;2024-03-29T06:37:13;1.85;;;0.30;;
38755;SDS011;77170;43.486;-1.508;2024-03-29T06:39:42;0.95;;;0.30;;
38755;SDS011;77170;43.486;-1.508;2024-03-29T06:42:08;1.23;;;0.30;;
38755;SDS011;77170;43.486;-1.508;2024-03-29T06:44:35;0.30;;;0.30;;
38755;SDS011;77170;43.486;-1.508;2024-03-29T06:47:04;0.40;;;0.40;;
38755;SDS011;77170;43.486;-1.508;2024-03-29T06:49:30;0.38;;;0.32;;
38755;SDS011;77170;43.486;-1.508;2024-03-29T06:51:59;0.65;;;0.30;;
38755;SDS011;77170;43.486;-1.508;2024-03-29T06:54:29;0.47;;;0.30;;
38755;SDS011;77170;43.486;-1.508;2024-03-29T06:56:58;1.25;;;0.40;;
38755;SDS011;77170;43.486;-1.508;2024-03-29T06:59:24;0.20;;;0.20;;
38755;SDS011;77170;43.486;-1.508;2024-03-29T07:01:53;0.30;;;0.30;;
38755;SDS011;77170;43.486;-1.508;2024-03-29T07:04:20;0.98;;;0.50;;
38755;SDS011;77170;43.486;-1.508;2024-03-29T07:06:47;0.77;;;0.40;;
38755;SDS011;77170;43.486;-1.508;2024-03-29T07:09:16;2.10;;;0.57;;
38755;SDS011;77170;43.486;-1.508;2024-03-29T07:11:46;2.83;;;0.80;;
38755;SDS011;77170;43.486;-1.508;2024-03-29T07:14:13;11.70;;;2.83;;
38755;SDS011;77170;43.486;-1.508;2024-03-29T07:16:40;11.68;;;2.53;;
38755;SDS011;77170;43.486;-1.508;2024-03-29T07:19:06;14.30;;;2.65;;
38755;SDS011;77170;43.486;-1.508;2024-03-29T07:21:32;14.60;;;2.33;;
38755;SDS011;77170;43.486;-1.508;2024-03-29T07:23:58;11.73;;;3.05;;
38755;SDS011;77170;43.486;-1.508;2024-03-29T07:26:25;13.40;;;2.75;;
38755;SDS011;77170;43.486;-1.508;2024-03-29T07:28:51;11.73;;;2.20;;
38755;SDS011;77170;43.486;-1.508;2024-03-29T07:31:18;12.18;;;2.45;;
38755;SDS011;77170;43.486;-1.508;2024-03-29T07:33:45;12.18;;;2.80;;
38755;SDS011;77170;43.486;-1.508;2024-03-29T07:36:11;15.80;;;2.53;;
38755;SDS011;77170;43.486;-1.508;2024-03-29T07:38:38;13.30;;;3.08;;
38755;SDS011;77170;43.486;-1.508;2024-03-29T07:41:04;12.50;;;2.38;;
38755;SDS011;77170;43.486;-1.508;2024-03-29T07:43:41;6.45;;;1.83;;
38755;SDS011;77170;43.486;-1.508;2024-03-29T07:46:27;9.40;;;1.75;;
38755;SDS011;77170;43.486;-1.508;2024-03-29T07:48:54;5.63;;;1.60;;
38755;SDS011;77170;43.486;-1.508;2024-03-29T07:51:20;3.45;;;1.35;;
38755;SDS011;77170;43.486;-1.508;2024-03-29T07:53:47;3.85;;;0.95;;
38755;SDS011;77170;43.486;-1.508;2024-03-29T07:56:13;1.52;;;0.60;;
38755;SDS011;77170;43.486;-1.508;2024-03-29T07:58:39;1.27;;;0.70;;
38755;SDS011;77170;43.486;-1.508;2024-03-29T08:01:05;0.80;;;0.70;;
38755;SDS011;77170;43.486;-1.508;2024-03-29T08:03:31;0.73;;;0.65;;
38755;SDS011;77170;43.486;-1.508;2024-03-29T08:08:31;0.73;;;0.68;;
38755;SDS011;77170;43.486;-1.508;2024-03-29T08:10:58;0.73;;;0.60;;
38755;SDS011;77170;43.486;-1.508;2024-03-29T08:13:25;1.65;;;0.60;;
38755;SDS011;77170;43.486;-1.508;2024-03-29T08:15:58;1.33;;;0.60;;
38755;SDS011;77170;43.486;-1.508;2024-03-29T08:18:25;0.77;;;0.50;;
38755;SDS011;77170;43.486;-1.508;2024-03-29T08:20:52;1.55;;;0.73;;
38755;SDS011;77170;43.486;-1.508;2024-03-29T08:23:22;1.02;;;0.60;;
38755;SDS011;77170;43.486;-1.508;2024-03-29T08:25:48;1.27;;;0.75;;
38755;SDS011;77170;43.486;-1.508;2024-03-29T08:28:16;0.55;;;0.50;;
38755;SDS011;77170;43.486;-1.508;2024-03-29T08:30:46;0.65;;;0.50;;
38755;SDS011;77170;43.486;-1.508;2024-03-29T08:33:22;2.45;;;0.50;;
38755;SDS011;77170;43.486;-1.508;2024-03-29T08:35:48;0.85;;;0.55;;
38755;SDS011;77170;43.486;-1.508;2024-03-29T08:38:14;0.88;;;0.45;;
38755;SDS011;77170;43.486;-1.508;2024-03-29T08:40:41;0.30;;;0.30;;
38755;SDS011;77170;43.486;-1.508;2024-03-29T08:43:08;1.05;;;0.40;;
38755;SDS011;77170;43.486;-1.508;2024-03-29T08:45:35;0.50;;;0.45;;
38755;SDS011;77170;43.486;-1.508;2024-03-29T08:48:06;2.63;;;0.70;;
38755;SDS011;77170;43.486;-1.508;2024-03-29T08:50:35;0.50;;;0.50;;
38755;SDS011;77170;43.486;-1.508;2024-03-29T08:53:04;0.65;;;0.50;;
38755;SDS011;77170;43.486;-1.508;2024-03-29T08:55:31;4.28;;;0.50;;
38755;SDS011;77170;43.486;-1.508;2024-03-29T08:57:58;3.95;;;0.88;;
38755;SDS011;77170;43.486;-1.508;2024-03-29T09:00:25;4.28;;;0.98;;
38755;SDS011;77170;43.486;-1.508;2024-03-29T09:02:54;2.45;;;0.75;;
38755;SDS011;77170;43.486;-1.508;2024-03-29T09:05:24;1.70;;;0.77;;
38755;SDS011;77170;43.486;-1.508;2024-03-29T09:07:52;2.35;;;1.25;;
38755;SDS011;77170;43.486;-1.508;2024-03-29T09:10:19;4.13;;;1.15;;
38755;SDS011;77170;43.486;-1.508;2024-03-29T09:12:45;5.53;;;1.35;;
38755;SDS011;77170;43.486;-1.508;2024-03-29T09:15:11;8.32;;;1.90;;
38755;SDS011;77170;43.486;-1.508;2024-03-29T09:17:43;14.70;;;1.65;;
38755;SDS011;77170;43.486;-1.508;2024-03-29T09:20:09;1.70;;;0.65;;
38755;SDS011;77170;43.486;-1.508;2024-03-29T09:22:36;3.92;;;0.70;;
38755;SDS011;77170;43.486;-1.508;2024-03-29T09:25:03;3.47;;;0.77;;
38755;SDS011;77170;43.486;-1.508;2024-03-29T09:27:30;1.95;;;0.60;;
38755;SDS011;77170;43.486;-1.508;2024-03-29T09:30:00;1.35;;;0.80;;
38755;SDS011;77170;43.486;-1.508;2024-03-29T09:32:26;1.25;;;0.60;;
38755;SDS011;77170;43.486;-1.508;2024-03-29T09:34:52;0.93;;;0.75;;
38755;SDS011;77170;43.486;-1.508;2024-03-29T09:37:19;1.35;;;0.80;;
38755;SDS011;77170;43.486;-1.508;2024-03-29T09:39:45;1.95;;;0.85;;
38755;SDS011;77170;43.486;-1.508;2024-03-29T09:42:13;3.55;;;0.70;;
38755;SDS011;77170;43.486;-1.508;2024-03-29T09:44:43;2.08;;;1.00;;
38755;SDS011;77170;43.486;-1.508;2024-03-29T09:47:11;3.05;;;0.77;;
38755;SDS011;77170;43.486;-1.508;2024-03-29T09:49:42;1.67;;;0.60;;
38755;SDS011;77170;43.486;-1.508;2024-03-29T09:52:09;3.42;;;0.85;;
38755;SDS011;77170;43.486;-1.508;2024-03-29T09:54:36;1.15;;;0.85;;
38755;SDS011;77170;43.486;-1.508;2024-03-29T09:57:02;3.40;;;1.00;;
38755;SDS011;77170;43.486;-1.508;2024-03-29T09:59:30;1.83;;;0.77;;
38755;SDS011;77170;43.486;-1.508;2024-03-29T10:01:56;7.38;;;1.35;;
38755;SDS011;77170;43.486;-1.508;2024-03-29T10:04:23;10.15;;;1.10;;
38755;SDS011;77170;43.486;-1.508;2024-03-29T10:06:50;3.20;;;1.00;;
38755;SDS011;77170;43.486;-1.508;2024-03-29T10:09:22;4.68;;;0.68;;
38755;SDS011;77170;43.486;-1.508;2024-03-29T10:11:52;2.95;;;1.10;;
38755;SDS011;77170;43.486;-1.508;2024-03-29T10:14:18;1.67;;;0.70;;
38755;SDS011;77170;43.486;-1.508;2024-03-29T10:16:47;1.38;;;0.80;;
38755;SDS011;77170;43.486;-1.508;2024-03-29T10:19:16;5.35;;;1.20;;
38755;SDS011;77170;43.486;-1.508;2024-03-29T10:21:42;2.88;;;0.93;;
38755;SDS011;77170;43.486;-1.508;2024-03-29T10:24:15;7.03;;;1.13;;
38755;SDS011;77170;43.486;-1.508;2024-03-29T10:26:45;4.72;;;1.45;;
38755;SDS011;77170;43.486;-1.508;2024-03-29T10:29:13;4.50;;;1.38;;
38755;SDS011;77170;43.486;-1.508;2024-03-29T10:31:39;4.97;;;1.30;;
38755;SDS011;77170;43.486;-1.508;2024-03-29T10:34:05;5.18;;;1.75;;
38755;SDS011;77170;43.486;-1.508;2024-03-29T10:36:33;2.70;;;1.60;;
38755;SDS011;77170;43.486;-1.508;2024-03-29T10:39:01;5.38;;;1.42;;
38755;SDS011;77170;43.486;-1.508;2024-03-29T10:41:36;5.25;;;1.50;;
38755;SDS011;77170;43.486;-1.508;2024-03-29T10:44:11;2.90;;;1.10;;
38755;SDS011;77170;43.486;-1.508;2024-03-29T10:46:38;2.53;;;1.10;;
38755;SDS011;77170;43.486;-1.508;2024-03-29T10:49:08;7.55;;;1.40;;
38755;SDS011;77170;43.486;-1.508;2024-03-29T10:51:38;4.18;;;1.42;;
38755;SDS011;77170;43.486;-1.508;2024-03-29T10:54:08;5.63;;;1.00;;
38755;SDS011;77170;43.486;-1.508;2024-03-29T10:56:35;3.80;;;1.20;;
38755;SDS011;77170;43.486;-1.508;2024-03-29T10:59:06;2.97;;;0.93;;
38755;SDS011;77170;43.486;-1.508;2024-03-29T11:01:41;2.53;;;1.20;;
38755;SDS011;77170;43.486;-1.508;2024-03-29T11:04:21;2.88;;;1.58;;
38755;SDS011;77170;43.486;-1.508;2024-03-29T11:06:54;6.72;;;2.08;;
38755;SDS011;77170;43.486;-1.508;2024-03-29T11:09:23;7.75;;;1.65;;
38755;SDS011;77170;43.486;-1.508;2024-03-29T11:11:55;8.93;;;2.72;;
38755;SDS011;77170;43.486;-1.508;2024-03-29T11:14:26;10.23;;;3.33;;
38755;SDS011;77170;43.486;-1.508;2024-03-29T11:16:57;19.13;;;4.30;;
38755;SDS011;77170;43.486;-1.508;2024-03-29T11:19:24;23.42;;;6.28;;
38755;SDS011;77170;43.486;-1.508;2024-03-29T11:21:51;27.52;;;5.57;;
38755;SDS011;77170;43.486;-1.508;2024-03-29T11:24:18;26.15;;;5.63;;
38755;SDS011;77170;43.486;-1.508;2024-03-29T11:26:47;25.27;;;7.25;;
38755;SDS011;77170;43.486;-1.508;2024-03-29T11:29:20;40.95;;;9.80;;
38755;SDS011;77170;43.486;-1.508;2024-03-29T11:31:47;47.75;;;11.90;;
38755;SDS011;77170;43.486;-1.508;2024-03-29T11:34:19;52.03;;;10.80;;
38755;SDS011;77170;43.486;-1.508;2024-03-29T11:36:45;31.75;;;8.18;;
38755;SDS011;77170;43.486;-1.508;2024-03-29T11:39:21;32.92;;;8.50;;
38755;SDS011;77170;43.486;-1.508;2024-03-29T11:41:48;29.83;;;7.20;;
38755;SDS011;77170;43.486;-1.508;2024-03-29T11:44:17;36.17;;;8.32;;
38755;SDS011;77170;43.486;-1.508;2024-03-29T11:46:43;31.38;;;7.57;;
38755;SDS011;77170;43.486;-1.508;2024-03-29T11:49:12;28.13;;;7.05;;
38755;SDS011;77170;43.486;-1.508;2024-03-29T11:51:38;32.70;;;8.40;;
38755;SDS011;77170;43.486;-1.508;2024-03-29T11:54:06;40.90;;;9.25;;
38755;SDS011;77170;43.486;-1.508;2024-03-29T11:56:32;45.45;;;10.52;;
38755;SDS011;77170;43.486;-1.508;2024-03-29T11:58:58;47.75;;;10.02;;
38755;SDS011;77170;43.486;-1.508;2024-03-29T12:01:28;29.98;;;5.82;;
38755;SDS011;77170;43.486;-1.508;2024-03-29T12:03:57;25.05;;;5.55;;
38755;SDS011;77170;43.486;-1.508;2024-03-29T12:06:23;22.92;;;6.25;;
38755;SDS011;77170;43.486;-1.508;2024-03-29T12:08:50;23.73;;;4.47;;
38755;SDS011;77170;43.486;-1.508;2024-03-29T12:11:18;20.98;;;5.05;;
38755;SDS011;77170;43.486;-1.508;2024-03-29T12:13:44;30.40;;;5.10;;
38755;SDS011;77170;43.486;-1.508;2024-03-29T12:16:10;25.05;;;5.80;;
38755;SDS011;77170;43.486;-1.508;2024-03-29T12:18:37;19.33;;;5.03;;
38755;SDS011;77170;43.486;-1.508;2024-03-29T12:21:03;19.58;;;4.88;;
38755;SDS011;77170;43.486;-1.508;2024-03-29T12:23:30;24.23;;;4.70;;
38755;SDS011;77170;43.486;-1.508;2024-03-29T12:25:57;22.75;;;4.70;;
38755;SDS011;77170;43.486;-1.508;2024-03-29T12:28:24;16.80;;;4.18;;
38755;SDS011;77170;43.486;-1.508;2024-03-29T12:30:51;15.93;;;3.92;;
38755;SDS011;77170;43.486;-1.508;2024-03-29T12:33:20;14.15;;;3.83;;
38755;SDS011;77170;43.486;-1.508;2024-03-29T12:38:20;20.75;;;4.05;;
38755;SDS011;77170;43.486;-1.508;2024-03-29T12:40:48;21.00;;;4.22;;
38755;SDS011;77170;43.486;-1.508;2024-03-29T12:43:19;18.35;;;4.28;;
38755;SDS011;77170;43.486;-1.508;2024-03-29T12:45:47;25.92;;;5.40;;
38755;SDS011;77170;43.486;-1.508;2024-03-29T12:48:15;21.92;;;4.88;;
38755;SDS011;77170;43.486;-1.508;2024-03-29T12:53:12;27.38;;;6.47;;
38755;SDS011;77170;43.486;-1.508;2024-03-29T12:55:40;18.73;;;4.45;;
38755;SDS011;77170;43.486;-1.508;2024-03-29T12:58:09;23.10;;;4.50;;
38755;SDS011;77170;43.486;-1.508;2024-03-29T13:00:36;16.65;;;4.00;;
38755;SDS011;77170;43.486;-1.508;2024-03-29T13:03:03;15.25;;;3.65;;
38755;SDS011;77170;43.486;-1.508;2024-03-29T13:05:30;17.45;;;4.15;;
38755;SDS011;77170;43.486;-1.508;2024-03-29T13:08:03;12.85;;;4.80;;
38755;SDS011;77170;43.486;-1.508;2024-03-29T13:10:30;16.73;;;3.30;;
38755;SDS011;77170;43.486;-1.508;2024-03-29T13:12:57;16.88;;;3.95;;
38755;SDS011;77170;43.486;-1.508;2024-03-29T13:15:24;13.38;;;3.58;;
38755;SDS011;77170;43.486;-1.508;2024-03-29T13:17:54;15.45;;;3.40;;
38755;SDS011;77170;43.486;-1.508;2024-03-29T13:20:24;9.13;;;2.63;;
38755;SDS011;77170;43.486;-1.508;2024-03-29T13:22:51;18.88;;;3.20;;
38755;SDS011;77170;43.486;-1.508;2024-03-29T13:25:19;17.80;;;3.22;;
38755;SDS011;77170;43.486;-1.508;2024-03-29T13:27:50;18.25;;;4.07;;
38755;SDS011;77170;43.486;-1.508;2024-03-29T13:30:23;22.10;;;3.88;;
38755;SDS011;77170;43.486;-1.508;2024-03-29T13:35:16;23.27;;;6.25;;
38755;SDS011;77170;43.486;-1.508;2024-03-29T13:37:47;20.80;;;5.80;;
38755;SDS011;77170;43.486;-1.508;2024-03-29T13:40:15;21.83;;;5.78;;
38755;SDS011;77170;43.486;-1.508;2024-03-29T13:42:42;19.02;;;5.28;;
38755;SDS011;77170;43.486;-1.508;2024-03-29T13:45:09;28.10;;;6.15;;
38755;SDS011;77170;43.486;-1.508;2024-03-29T13:47:39;86.25;;;11.90;;
38755;SDS011;77170;43.486;-1.508;2024-03-29T13:50:07;95.38;;;11.52;;
38755;SDS011;77170;43.486;-1.508;2024-03-29T13:52:34;98.15;;;12.43;;
38755;SDS011;77170;43.486;-1.508;2024-03-29T13:55:00;35.60;;;6.75;;
38755;SDS011;77170;43.486;-1.508;2024-03-29T13:57:28;60.85;;;9.75;;
38755;SDS011;77170;43.486;-1.508;2024-03-29T13:59:58;49.38;;;9.60;;
38755;SDS011;77170;43.486;-1.508;2024-03-29T14:02:25;28.85;;;5.97;;
38755;SDS011;77170;43.486;-1.508;2024-03-29T14:04:54;32.07;;;6.60;;
38755;SDS011;77170;43.486;-1.508;2024-03-29T14:07:21;27.77;;;7.85;;
38755;SDS011;77170;43.486;-1.508;2024-03-29T14:09:50;32.97;;;8.95;;
38755;SDS011;77170;43.486;-1.508;2024-03-29T14:12:20;31.45;;;8.90;;
38755;SDS011;77170;43.486;-1.508;2024-03-29T14:14:50;42.45;;;10.15;;
38755;SDS011;77170;43.486;-1.508;2024-03-29T14:17:20;43.60;;;9.60;;
38755;SDS011;77170;43.486;-1.508;2024-03-29T14:19:49;41.00;;;10.67;;
38755;SDS011;77170;43.486;-1.508;2024-03-29T14:22:16;30.60;;;9.10;;
38755;SDS011;77170;43.486;-1.508;2024-03-29T14:24:45;38.22;;;8.48;;
38755;SDS011;77170;43.486;-1.508;2024-03-29T14:27:12;87.90;;;13.70;;
38755;SDS011;77170;43.486;-1.508;2024-03-29T14:29:38;375.27;;;43.92;;
38755;SDS011;77170;43.486;-1.508;2024-03-29T14:32:04;93.22;;;14.77;;
38755;SDS011;77170;43.486;-1.508;2024-03-29T14:34:31;57.50;;;9.48;;
38755;SDS011;77170;43.486;-1.508;2024-03-29T14:36:57;37.35;;;8.77;;
38755;SDS011;77170;43.486;-1.508;2024-03-29T14:39:24;34.28;;;8.27;;
38755;SDS011;77170;43.486;-1.508;2024-03-29T14:41:51;52.47;;;10.07;;
38755;SDS011;77170;43.486;-1.508;2024-03-29T14:44:17;66.07;;;12.23;;